createdAt,value
2023-02-22T00:02:27.201Z,6.86
2023-02-22T00:06:31.146Z,6.88
2023-02-22T00:10:34.189Z,6.85
2023-02-22T00:14:37.333Z,6.88
2023-02-22T00:18:41.798Z,6.93
2023-02-22T00:22:47.463Z,6.89
2023-02-22T00:26:51.911Z,6.93
2023-02-22T00:30:55.434Z,6.85
2023-02-22T00:35:00.107Z,6.81
2023-02-22T00:39:03.159Z,6.84
2023-02-22T00:43:07.195Z,6.85
2023-02-22T00:47:10.716Z,6.84
2023-02-22T00:51:15.425Z,6.66
2023-02-22T00:55:21.077Z,6.65
2023-02-22T00:59:24.123Z,6.60
2023-02-22T01:03:27.296Z,6.56
2023-02-22T01:07:34.810Z,6.60
2023-02-22T01:11:37.941Z,6.58
2023-02-22T01:15:43.187Z,6.64
2023-02-22T01:19:46.528Z,6.67
2023-02-22T01:23:51.960Z,6.65
2023-02-22T01:27:56.033Z,6.67
2023-02-22T01:31:59.206Z,6.67
2023-02-22T01:36:02.388Z,6.67
2023-02-22T01:40:09.375Z,6.71
2023-02-22T01:44:27.031Z,6.62
2023-02-22T01:48:36.884Z,6.70
2023-02-22T01:52:40.067Z,6.68
2023-02-22T01:56:51.216Z,6.62
2023-02-22T02:00:57.680Z,6.57
2023-02-22T02:05:01.279Z,6.59
2023-02-22T02:09:11.310Z,6.56
2023-02-22T02:13:16.785Z,6.53
2023-02-22T02:17:24.572Z,6.49
2023-02-22T02:21:49.937Z,6.48
2023-02-22T02:26:18.493Z,6.55
2023-02-22T02:30:50.800Z,6.56
2023-02-22T02:35:02.105Z,6.58
2023-02-22T02:39:11.310Z,6.62
2023-02-22T02:43:22.807Z,6.50
2023-02-22T02:47:30.109Z,6.42
2023-02-22T02:51:38.697Z,6.42
2023-02-22T02:55:41.761Z,6.44
2023-02-22T02:59:44.933Z,6.31
2023-02-22T03:03:58.916Z,6.34
2023-02-22T03:08:10.921Z,6.37
2023-02-22T03:12:29.636Z,6.26
2023-02-22T03:16:38.922Z,6.17
2023-02-22T03:20:47.712Z,6.09
2023-02-22T03:24:59.177Z,5.99
2023-02-22T03:29:05.308Z,5.77
2023-02-22T03:33:12.979Z,5.58
2023-02-22T03:37:19.127Z,5.55
2023-02-22T03:41:26.253Z,5.62
2023-02-22T03:45:32.006Z,5.73
2023-02-22T03:49:38.737Z,5.73
2023-02-22T03:53:45.496Z,5.53
2023-02-22T03:57:52.986Z,5.60
2023-02-22T04:01:58.564Z,5.53
2023-02-22T04:06:01.764Z,5.59
2023-02-22T04:10:08.729Z,5.40
2023-02-22T04:14:14.785Z,5.46
2023-02-22T04:18:17.842Z,5.46
2023-02-22T04:22:22.715Z,5.48
2023-02-22T04:26:27.359Z,5.25
2023-02-22T04:30:34.585Z,5.19
2023-02-22T04:34:39.430Z,5.09
2023-02-22T04:38:42.766Z,5.01
2023-02-22T04:42:46.085Z,4.94
2023-02-22T04:46:51.411Z,4.88
2023-02-22T04:50:54.681Z,4.85
2023-02-22T04:54:58.045Z,4.77
2023-02-22T04:59:01.837Z,4.76
2023-02-22T05:03:06.351Z,4.76
2023-02-22T05:07:09.469Z,4.69
2023-02-22T05:11:12.837Z,4.68
2023-02-22T05:15:19.475Z,4.75
2023-02-22T05:19:25.502Z,4.77
2023-02-22T05:23:28.610Z,4.80
2023-02-22T05:27:31.999Z,4.77
2023-02-22T05:31:35.327Z,4.77
2023-02-22T05:35:40.058Z,4.74
2023-02-22T05:39:43.241Z,4.57
2023-02-22T05:43:46.384Z,4.50
2023-02-22T05:47:50.354Z,4.44
2023-02-22T05:51:55.962Z,4.43
2023-02-22T05:55:59.327Z,4.48
2023-02-22T06:00:02.528Z,4.55
2023-02-22T06:04:15.962Z,4.47
2023-02-22T06:08:20.539Z,4.43
2023-02-22T06:12:23.752Z,4.49
2023-02-22T06:16:26.930Z,4.48
2023-02-22T06:20:33.457Z,4.52
2023-02-22T06:24:39.971Z,4.48
2023-02-22T06:28:43.110Z,4.48
2023-02-22T06:32:46.239Z,4.48
2023-02-22T06:36:50.094Z,4.48
2023-02-22T06:40:55.788Z,4.41
2023-02-22T06:44:58.932Z,4.43
2023-02-22T06:49:02.537Z,4.42
2023-02-22T06:53:06.313Z,4.39
2023-02-22T06:57:10.955Z,4.43
2023-02-22T07:01:15.910Z,4.45
2023-02-22T07:05:23.260Z,4.47
2023-02-22T07:09:26.413Z,4.55
2023-02-22T07:13:30.834Z,4.61
2023-02-22T07:17:33.963Z,4.59
2023-02-22T07:21:37.157Z,4.69
2023-02-22T07:25:40.296Z,4.70
2023-02-22T07:29:46.836Z,4.68
2023-02-22T07:33:51.527Z,4.69
2023-02-22T07:37:56.090Z,4.76
2023-02-22T07:41:59.368Z,4.83
2023-02-22T07:46:06.647Z,4.93
2023-02-22T07:50:09.816Z,5.03
2023-02-22T07:54:12.807Z,5.06
2023-02-22T07:58:17.040Z,5.18
2023-02-22T08:02:22.366Z,5.18
2023-02-22T08:06:25.946Z,5.31
2023-02-22T08:10:29.130Z,5.40
2023-02-22T08:14:32.170Z,5.51
2023-02-22T08:18:38.393Z,5.68
2023-02-22T08:22:44.571Z,5.89
2023-02-22T08:26:47.901Z,5.82
2023-02-22T08:30:51.650Z,5.97
2023-02-22T08:34:56.071Z,6.09
2023-02-22T08:38:59.056Z,6.26
2023-02-22T08:43:02.649Z,6.55
2023-02-22T08:47:07.636Z,6.93
2023-02-22T08:51:13.144Z,7.25
2023-02-22T08:55:16.130Z,7.62
2023-02-22T08:59:19.172Z,8.17
2023-02-22T09:03:22.272Z,8.17
2023-02-22T09:07:26.715Z,8.05
2023-02-22T09:11:30.172Z,8.56
2023-02-22T09:15:35.932Z,9.03
2023-02-22T09:19:38.963Z,8.85
2023-02-22T09:23:43.352Z,9.86
2023-02-22T09:27:49.155Z,10.34
2023-02-22T09:31:54.316Z,10.40
2023-02-22T09:36:00.740Z,11.21
2023-02-22T09:40:09.860Z,11.57
2023-02-22T09:44:21.242Z,11.86
2023-02-22T09:48:25.398Z,11.95
2023-02-22T09:52:33.384Z,11.31
2023-02-22T09:56:39.654Z,11.15
2023-02-22T10:00:44.803Z,11.04
2023-02-22T10:04:54.121Z,11.69
2023-02-22T10:09:00.930Z,11.69
2023-02-22T10:13:15.671Z,11.73
2023-02-22T10:17:30.716Z,12.49
2023-02-22T10:21:53.936Z,12.84
2023-02-22T10:26:06.861Z,13.01
2023-02-22T10:30:24.971Z,13.00
2023-02-22T10:34:32.072Z,13.93
2023-02-22T10:38:36.671Z,14.54
2023-02-22T10:42:40.432Z,14.99
2023-02-22T10:46:46.962Z,14.99
2023-02-22T10:50:50.972Z,15.10
2023-02-22T10:55:06.099Z,15.60
2023-02-22T10:59:29.393Z,14.84
2023-02-22T11:03:35.067Z,14.62
2023-02-22T11:07:38.901Z,14.98
2023-02-22T11:11:44.146Z,15.94
2023-02-22T11:15:48.100Z,16.32
2023-02-22T11:19:52.580Z,15.77
2023-02-22T11:24:03.426Z,14.67
2023-02-22T11:28:14.964Z,15.86
2023-02-22T11:32:22.611Z,14.93
2023-02-22T11:36:37.470Z,16.22
2023-02-22T11:40:40.953Z,16.19
2023-02-22T11:44:45.210Z,16.94
2023-02-22T11:48:59.127Z,16.45
2023-02-22T11:53:25.562Z,16.96
2023-02-22T11:57:52.660Z,16.40
2023-02-22T12:02:00.181Z,16.03
2023-02-22T12:06:19.576Z,15.86
2023-02-22T12:10:34.377Z,16.32
2023-02-22T12:14:47.266Z,15.40
2023-02-22T12:19:06.537Z,15.95
2023-02-22T12:23:20.186Z,16.56
2023-02-22T12:27:29.431Z,16.50
2023-02-22T12:31:36.863Z,16.56
2023-02-22T12:35:46.198Z,16.98
2023-02-22T12:39:58.965Z,15.67
2023-02-22T12:44:10.211Z,16.50
2023-02-22T12:48:40.251Z,16.65
2023-02-22T12:52:52.491Z,17.14
2023-02-22T12:57:00.582Z,16.56
2023-02-22T13:01:12.483Z,17.44
2023-02-22T13:05:18.501Z,17.25
2023-02-22T13:09:44.584Z,17.23
2023-02-22T13:13:55.426Z,17.16
2023-02-22T13:18:10.687Z,16.98
2023-02-22T13:22:20.066Z,17.05
2023-02-22T13:26:29.561Z,16.20
2023-02-22T13:30:40.365Z,15.69
2023-02-22T13:35:10.377Z,16.19
2023-02-22T13:39:36.470Z,17.09
2023-02-22T13:43:57.212Z,16.25
2023-02-22T13:48:19.291Z,16.09
2023-02-22T13:52:27.201Z,16.58
2023-02-22T13:56:31.120Z,16.13
2023-02-22T14:00:45.792Z,15.77
2023-02-22T14:04:49.156Z,15.25
2023-02-22T14:08:53.729Z,15.46
2023-02-22T14:13:05.827Z,15.29
2023-02-22T14:17:24.794Z,15.16
2023-02-22T14:21:28.013Z,14.94
2023-02-22T14:25:40.326Z,14.63
2023-02-22T14:29:53.713Z,14.53
2023-02-22T14:34:02.033Z,14.67
2023-02-22T14:38:11.314Z,14.84
2023-02-22T14:42:20.774Z,14.50
2023-02-22T14:46:28.415Z,14.45
2023-02-22T14:50:44.269Z,14.24
2023-02-22T14:54:59.846Z,14.06
2023-02-22T14:59:16.277Z,14.03
2023-02-22T15:03:29.304Z,13.97
2023-02-22T15:07:35.943Z,13.96
2023-02-22T15:11:39.222Z,14.06
2023-02-22T15:15:48.245Z,14.13
2023-02-22T15:19:53.471Z,14.22
2023-02-22T15:23:59.829Z,14.18
2023-02-22T15:28:05.390Z,14.14
2023-02-22T15:32:22.320Z,13.93
2023-02-22T15:36:28.726Z,13.91
2023-02-22T15:40:34.210Z,13.65
2023-02-22T15:44:40.525Z,13.47
2023-02-22T15:48:45.049Z,13.41
2023-02-22T15:52:58.214Z,13.25
2023-02-22T15:57:01.881Z,13.06
2023-02-22T16:01:07.592Z,12.97
2023-02-22T16:05:14.465Z,12.90
2023-02-22T16:09:23.065Z,12.79
2023-02-22T16:13:32.680Z,12.73
2023-02-22T16:17:49.497Z,12.68
2023-02-22T16:22:03.957Z,12.62
2023-02-22T16:26:20.408Z,12.45
2023-02-22T16:30:29.912Z,12.40
2023-02-22T16:34:33.401Z,12.31
2023-02-22T16:38:39.106Z,12.23
2023-02-22T16:42:42.306Z,12.13
2023-02-22T16:46:45.810Z,12.08
2023-02-22T16:50:51.396Z,11.93
2023-02-22T16:54:56.113Z,11.83
2023-02-22T16:59:04.133Z,11.75
2023-02-22T17:03:07.336Z,11.64
2023-02-22T17:07:10.480Z,11.58
2023-02-22T17:11:15.976Z,11.50
2023-02-22T17:15:23.381Z,11.43
2023-02-22T17:19:26.660Z,11.34
2023-02-22T17:23:30.062Z,11.28
2023-02-22T17:27:34.719Z,11.19
2023-02-22T17:31:38.124Z,11.15
2023-02-22T17:35:41.508Z,11.07
2023-02-22T17:39:44.558Z,10.95
2023-02-22T17:43:49.268Z,10.85
2023-02-22T17:47:53.690Z,10.74
2023-02-22T17:51:57.041Z,10.60
2023-02-22T17:56:00.127Z,10.47
2023-02-22T18:00:12.618Z,10.33
2023-02-22T18:04:18.724Z,10.18
2023-02-22T18:08:23.703Z,10.13
2023-02-22T18:12:27.477Z,10.06
2023-02-22T18:16:32.013Z,9.99
2023-02-22T18:20:38.431Z,9.94
2023-02-22T18:24:42.775Z,9.91
2023-02-22T18:28:48.711Z,9.90
2023-02-22T18:32:53.314Z,9.89
2023-02-22T18:36:56.752Z,9.83
2023-02-22T18:41:01.410Z,9.86
2023-02-22T18:45:07.295Z,9.80
2023-02-22T18:49:14.179Z,9.79
2023-02-22T18:53:17.798Z,9.77
2023-02-22T18:57:21.063Z,9.75
2023-02-22T19:01:24.585Z,9.77
2023-02-22T19:05:29.557Z,9.78
2023-02-22T19:09:32.750Z,9.79
2023-02-22T19:13:36.216Z,9.72
2023-02-22T19:17:42.479Z,9.69
2023-02-22T19:21:47.981Z,9.63
2023-02-22T19:25:51.073Z,9.52
2023-02-22T19:29:54.502Z,9.47
2023-02-22T19:34:02.053Z,9.35
2023-02-22T19:38:06.823Z,9.33
2023-02-22T19:42:11.024Z,9.33
2023-02-22T19:46:16.914Z,9.32
2023-02-22T19:50:21.253Z,9.29
2023-02-22T19:54:25.766Z,9.27
2023-02-22T19:58:28.870Z,9.31
2023-02-22T20:02:32.129Z,9.31
2023-02-22T20:06:40.323Z,9.35
2023-02-22T20:10:46.808Z,9.33
2023-02-22T20:14:49.940Z,9.32
2023-02-22T20:18:54.558Z,9.38
2023-02-22T20:22:58.082Z,9.38
2023-02-22T20:27:02.893Z,9.37
2023-02-22T20:31:11.243Z,9.31
2023-02-22T20:35:16.521Z,9.28
2023-02-22T20:39:19.626Z,9.24
2023-02-22T20:43:24.169Z,9.23
2023-02-22T20:47:27.379Z,9.25
2023-02-22T20:51:31.560Z,9.26
2023-02-22T20:55:35.158Z,9.24
2023-02-22T20:59:40.229Z,9.23
2023-02-22T21:03:44.353Z,9.24
2023-02-22T21:07:47.404Z,9.23
2023-02-22T21:11:50.585Z,9.20
2023-02-22T21:15:55.112Z,9.18
2023-02-22T21:19:58.847Z,9.15
2023-02-22T21:24:02.614Z,9.15
2023-02-22T21:28:06.230Z,9.18
2023-02-22T21:32:11.189Z,9.16
2023-02-22T21:36:14.745Z,9.14
2023-02-22T21:40:20.202Z,9.12
2023-02-22T21:44:23.323Z,9.11
2023-02-22T21:48:27.766Z,9.12
2023-02-22T21:52:30.833Z,9.10
2023-02-22T21:56:37.162Z,9.07
2023-02-22T22:00:42.815Z,9.08
2023-02-22T22:04:47.354Z,9.08
2023-02-22T22:08:50.534Z,9.10
2023-02-22T22:12:53.572Z,9.10
2023-02-22T22:16:58.745Z,9.11
2023-02-22T22:21:10.819Z,9.12
2023-02-22T22:25:17.177Z,9.08
2023-02-22T22:29:20.290Z,9.10
2023-02-22T22:33:23.555Z,9.11
2023-02-22T22:37:28.789Z,9.11
2023-02-22T22:41:33.911Z,9.11
2023-02-22T22:45:38.508Z,9.09
2023-02-22T22:49:42.613Z,9.10
2023-02-22T22:53:49.036Z,9.05
2023-02-22T22:57:52.513Z,9.07
2023-02-22T23:01:56.729Z,9.06
2023-02-22T23:06:02.675Z,9.03
2023-02-22T23:10:12.666Z,9.07
2023-02-22T23:14:19.598Z,9.06
2023-02-22T23:18:22.677Z,9.10
2023-02-22T23:22:27.906Z,9.10
2023-02-22T23:26:32.822Z,9.09
2023-02-22T23:30:35.880Z,9.09
2023-02-22T23:34:41.221Z,9.11
2023-02-22T23:38:45.241Z,9.10
2023-02-22T23:42:50.613Z,9.09
2023-02-22T23:46:55.872Z,9.08
2023-02-22T23:51:00.171Z,9.03
2023-02-22T23:55:05.568Z,8.99
2023-02-22T23:59:12.571Z,8.99
